createdAt,value
2023-02-24T00:01:52.582Z,38.33
2023-02-24T00:04:21.105Z,39.85
2023-02-24T00:06:48.978Z,40.35
2023-02-24T00:09:21.873Z,42.40
2023-02-24T00:11:53.049Z,41.15
2023-02-24T00:14:20.855Z,44.08
2023-02-24T00:16:48.441Z,42.72
2023-02-24T00:19:18.335Z,42.65
2023-02-24T00:21:46.077Z,42.92
2023-02-24T00:24:13.763Z,41.55
2023-02-24T00:26:41.412Z,42.35
2023-02-24T00:29:11.489Z,42.08
2023-02-24T00:31:47.326Z,42.08
2023-02-24T00:34:15.220Z,42.65
2023-02-24T00:36:42.300Z,40.33
2023-02-24T00:39:11.788Z,41.83
2023-02-24T00:41:42.958Z,41.95
2023-02-24T00:44:14.117Z,42.65
2023-02-24T00:46:47.227Z,43.70
2023-02-24T00:49:17.847Z,39.30
2023-02-24T00:51:48.738Z,35.88
2023-02-24T00:54:17.346Z,35.67
2023-02-24T00:56:46.446Z,36.75
2023-02-24T00:59:18.697Z,37.30
2023-02-24T01:01:46.215Z,40.25
2023-02-24T01:04:14.038Z,39.70
2023-02-24T01:06:43.577Z,41.42
2023-02-24T01:09:13.540Z,40.67
2023-02-24T01:12:00.409Z,41.90
2023-02-24T01:14:30.571Z,41.33
2023-02-24T01:16:58.244Z,40.08
2023-02-24T01:19:32.053Z,37.67
2023-02-24T01:22:05.105Z,39.05
2023-02-24T01:24:35.823Z,38.30
2023-02-24T01:27:04.233Z,38.22
2023-02-24T01:29:31.550Z,37.60
2023-02-24T01:31:59.165Z,39.05
2023-02-24T01:34:28.109Z,38.78
2023-02-24T01:36:58.260Z,38.92
2023-02-24T01:39:26.083Z,35.95
2023-02-24T01:41:53.213Z,34.97
2023-02-24T01:44:25.214Z,33.85
2023-02-24T01:46:53.715Z,33.65
2023-02-24T01:49:24.862Z,31.30
2023-02-24T01:51:59.110Z,30.90
2023-02-24T01:54:32.709Z,29.33
2023-02-24T01:57:00.432Z,29.02
2023-02-24T01:59:30.312Z,29.20
2023-02-24T02:02:07.014Z,29.38
2023-02-24T02:04:37.215Z,28.15
2023-02-24T02:07:05.027Z,27.90
2023-02-24T02:09:34.038Z,28.30
2023-02-24T02:12:01.030Z,27.35
2023-02-24T02:14:30.243Z,26.92
2023-02-24T02:17:00.117Z,27.80
2023-02-24T02:20:16.156Z,27.08
2023-02-24T02:23:07.742Z,24.83
2023-02-24T02:26:00.274Z,26.00
2023-02-24T02:28:54.108Z,26.95
2023-02-24T02:31:36.573Z,26.05
2023-02-24T02:34:19.564Z,27.65
2023-02-24T02:37:05.947Z,29.25
2023-02-24T02:39:58.888Z,28.25
2023-02-24T02:42:30.802Z,27.08
2023-02-24T02:45:13.455Z,26.25
2023-02-24T02:47:59.313Z,26.58
2023-02-24T02:50:55.003Z,26.92
2023-02-24T02:53:27.058Z,27.50
2023-02-24T02:56:07.050Z,27.73
2023-02-24T02:58:41.087Z,28.45
2023-02-24T03:01:11.051Z,26.80
2023-02-24T03:03:50.808Z,26.88
2023-02-24T03:06:35.125Z,24.63
2023-02-24T03:09:18.262Z,24.55
2023-02-24T03:11:55.892Z,24.08
2023-02-24T03:14:30.960Z,22.48
2023-02-24T03:16:59.505Z,21.73
2023-02-24T03:19:37.455Z,21.98
2023-02-24T03:22:22.056Z,20.42
2023-02-24T03:24:49.422Z,19.70
2023-02-24T03:27:31.596Z,16.80
2023-02-24T03:30:15.991Z,16.33
2023-02-24T03:32:56.522Z,15.68
2023-02-24T03:35:34.646Z,13.88
2023-02-24T03:38:04.322Z,14.57
2023-02-24T03:40:34.315Z,14.23
2023-02-24T03:43:18.274Z,13.60
2023-02-24T03:45:46.805Z,14.32
2023-02-24T03:48:14.748Z,13.50
2023-02-24T03:50:45.588Z,14.15
2023-02-24T03:53:42.988Z,14.38
2023-02-24T03:56:25.719Z,13.52
2023-02-24T03:59:13.103Z,13.70
2023-02-24T04:02:05.328Z,13.85
2023-02-24T04:04:54.634Z,13.88
2023-02-24T04:08:01.136Z,13.93
2023-02-24T04:10:54.823Z,14.13
2023-02-24T04:13:38.759Z,14.60
2023-02-24T04:16:29.119Z,14.35
2023-02-24T04:19:02.916Z,14.63
2023-02-24T04:21:32.972Z,15.45
2023-02-24T04:24:08.634Z,14.48
2023-02-24T04:26:40.573Z,15.55
2023-02-24T04:29:09.828Z,15.70
2023-02-24T04:31:39.308Z,15.95
2023-02-24T04:34:09.545Z,15.75
2023-02-24T04:36:39.431Z,14.98
2023-02-24T04:39:07.768Z,16.00
2023-02-24T04:41:35.886Z,16.15
2023-02-24T04:44:02.916Z,16.27
2023-02-24T04:46:32.546Z,16.13
2023-02-24T04:49:02.302Z,16.08
2023-02-24T04:51:32.516Z,16.35
2023-02-24T04:53:59.834Z,17.05
2023-02-24T04:56:26.823Z,16.05
2023-02-24T04:58:53.906Z,17.75
2023-02-24T05:01:21.396Z,17.25
2023-02-24T05:03:48.569Z,17.50
2023-02-24T05:06:17.734Z,17.23
2023-02-24T05:08:45.280Z,17.25
2023-02-24T05:11:16.632Z,18.10
2023-02-24T05:13:47.877Z,17.85
2023-02-24T05:16:18.172Z,17.27
2023-02-24T05:18:45.728Z,17.40
2023-02-24T05:21:34.899Z,17.70
2023-02-24T05:24:07.070Z,18.15
2023-02-24T05:26:41.857Z,18.27
2023-02-24T05:29:11.101Z,18.50
2023-02-24T05:31:38.533Z,19.63
2023-02-24T05:34:08.240Z,18.80
2023-02-24T05:36:40.837Z,19.30
2023-02-24T05:39:12.102Z,19.65
2023-02-24T05:41:42.291Z,18.77
2023-02-24T05:44:16.153Z,19.90
2023-02-24T05:46:46.154Z,19.85
2023-02-24T05:49:20.710Z,20.63
2023-02-24T05:51:56.575Z,20.02
2023-02-24T05:54:31.341Z,19.88
2023-02-24T05:57:04.499Z,20.40
2023-02-24T05:59:34.757Z,19.08
2023-02-24T06:02:09.285Z,19.88
2023-02-24T06:04:45.877Z,19.98
2023-02-24T06:07:19.664Z,17.15
2023-02-24T06:09:50.410Z,19.30
2023-02-24T06:12:19.172Z,18.58
2023-02-24T06:14:46.882Z,17.42
2023-02-24T06:17:18.753Z,18.00
2023-02-24T06:19:51.388Z,18.38
2023-02-24T06:22:21.091Z,17.27
2023-02-24T06:24:49.494Z,16.73
2023-02-24T06:27:19.516Z,17.83
2023-02-24T06:29:51.083Z,16.58
2023-02-24T06:32:21.133Z,16.90
2023-02-24T06:34:48.319Z,18.05
2023-02-24T06:37:16.058Z,17.38
2023-02-24T06:39:43.533Z,16.67
2023-02-24T06:42:11.977Z,16.02
2023-02-24T06:44:40.936Z,15.93
2023-02-24T06:47:11.472Z,16.67
2023-02-24T06:49:38.502Z,15.15
2023-02-24T06:52:06.051Z,15.77
2023-02-24T06:54:36.102Z,15.93
2023-02-24T06:57:04.175Z,16.42
2023-02-24T06:59:32.299Z,15.65
2023-02-24T07:02:02.232Z,16.73
2023-02-24T07:04:29.881Z,16.42
2023-02-24T07:07:03.297Z,17.40
2023-02-24T07:09:31.284Z,16.20
2023-02-24T07:11:59.048Z,16.92
2023-02-24T07:14:30.625Z,17.50
2023-02-24T07:16:58.590Z,17.40
2023-02-24T07:19:32.627Z,16.02
2023-02-24T07:22:03.363Z,17.50
2023-02-24T07:24:33.742Z,16.90
2023-02-24T07:27:04.538Z,18.20
2023-02-24T07:29:33.072Z,18.20
2023-02-24T07:32:03.712Z,18.58
2023-02-24T07:34:32.037Z,17.58
2023-02-24T07:36:59.425Z,16.98
2023-02-24T07:39:26.502Z,17.90
2023-02-24T07:41:59.402Z,16.83
2023-02-24T07:44:26.819Z,16.63
2023-02-24T07:46:55.126Z,15.98
2023-02-24T07:49:28.018Z,17.08
2023-02-24T07:51:57.889Z,17.42
2023-02-24T07:54:30.148Z,17.20
2023-02-24T07:57:01.412Z,17.35
2023-02-24T07:59:31.154Z,17.80
2023-02-24T08:01:58.713Z,17.45
2023-02-24T08:04:30.634Z,17.63
2023-02-24T08:07:02.627Z,16.85
2023-02-24T08:09:45.229Z,16.25
2023-02-24T08:12:18.037Z,14.93
2023-02-24T08:14:51.013Z,14.43
2023-02-24T08:17:23.837Z,13.82
2023-02-24T08:20:11.695Z,12.95
2023-02-24T08:22:43.909Z,14.02
2023-02-24T08:25:18.720Z,12.43
2023-02-24T08:28:06.879Z,12.15
2023-02-24T08:30:40.845Z,11.80
2023-02-24T08:33:19.211Z,12.20
2023-02-24T08:35:52.096Z,11.90
2023-02-24T08:38:21.350Z,12.38
2023-02-24T08:40:52.164Z,12.45
2023-02-24T08:43:28.894Z,13.07
2023-02-24T08:45:59.594Z,13.00
2023-02-24T08:48:37.483Z,12.38
2023-02-24T08:51:28.883Z,13.90
2023-02-24T08:54:15.420Z,13.13
2023-02-24T08:56:49.276Z,13.65
2023-02-24T08:59:29.565Z,13.85
2023-02-24T09:02:18.796Z,13.98
2023-02-24T09:04:47.667Z,13.68
2023-02-24T09:07:21.271Z,12.63
2023-02-24T09:09:48.903Z,14.13
2023-02-24T09:12:24.698Z,14.00
2023-02-24T09:14:55.548Z,13.30
2023-02-24T09:17:40.461Z,13.57
2023-02-24T09:20:32.611Z,13.05
2023-02-24T09:23:08.973Z,13.48
2023-02-24T09:25:41.757Z,12.43
2023-02-24T09:28:09.170Z,11.95
2023-02-24T09:30:45.361Z,13.00
2023-02-24T09:33:18.525Z,13.07
2023-02-24T09:36:24.174Z,12.70
2023-02-24T09:38:57.853Z,12.32
2023-02-24T09:41:53.830Z,11.57
2023-02-24T09:44:44.346Z,11.10
2023-02-24T09:47:13.501Z,10.77
2023-02-24T09:49:59.214Z,11.10
2023-02-24T09:52:41.001Z,11.15
2023-02-24T09:55:46.211Z,10.82
2023-02-24T09:58:41.740Z,10.27
2023-02-24T10:01:34.562Z,11.02
2023-02-24T10:04:23.350Z,11.30
2023-02-24T10:07:15.628Z,11.32
2023-02-24T10:10:19.600Z,11.30
2023-02-24T10:12:55.058Z,11.70
2023-02-24T10:15:46.392Z,13.32
2023-02-24T10:18:41.165Z,12.23
2023-02-24T10:21:15.591Z,13.88
2023-02-24T10:23:56.766Z,12.30
2023-02-24T10:26:59.636Z,12.93
2023-02-24T10:30:05.021Z,13.20
2023-02-24T10:32:59.266Z,13.20
2023-02-24T10:35:33.762Z,13.88
2023-02-24T10:38:05.588Z,14.38
2023-02-24T10:40:56.840Z,13.82
2023-02-24T10:43:33.857Z,14.07
2023-02-24T10:46:17.428Z,14.10
2023-02-24T10:48:53.069Z,14.02
2023-02-24T10:51:22.570Z,13.98
2023-02-24T10:54:10.116Z,13.98
2023-02-24T10:56:55.450Z,14.52
2023-02-24T10:59:25.679Z,13.25
2023-02-24T11:02:23.837Z,13.93
2023-02-24T11:05:04.686Z,13.57
2023-02-24T11:07:53.741Z,14.70
2023-02-24T11:10:32.493Z,14.65
2023-02-24T11:13:19.853Z,15.13
2023-02-24T11:16:14.164Z,15.00
2023-02-24T11:18:50.045Z,15.13
2023-02-24T11:21:18.178Z,14.57
2023-02-24T11:23:46.240Z,14.32
2023-02-24T11:26:18.621Z,14.30
2023-02-24T11:28:55.987Z,14.27
2023-02-24T11:31:47.340Z,14.23
2023-02-24T11:34:39.447Z,14.77
2023-02-24T11:37:14.639Z,15.05
2023-02-24T11:39:59.666Z,15.80
2023-02-24T11:42:31.371Z,16.95
2023-02-24T11:45:19.675Z,16.80
2023-02-24T11:48:03.368Z,17.30
2023-02-24T11:50:43.926Z,16.77
2023-02-24T11:53:35.461Z,16.33
2023-02-24T11:56:06.579Z,14.95
2023-02-24T11:58:57.177Z,15.27
2023-02-24T12:01:41.284Z,15.23
2023-02-24T12:04:23.413Z,14.55
2023-02-24T12:07:13.416Z,14.93
2023-02-24T12:09:47.787Z,14.45
2023-02-24T12:12:24.924Z,14.48
2023-02-24T12:14:56.038Z,14.00
2023-02-24T12:17:47.203Z,12.55
2023-02-24T12:20:49.152Z,13.63
2023-02-24T12:23:16.134Z,12.63
2023-02-24T12:25:50.507Z,12.50
2023-02-24T12:28:40.799Z,12.57
2023-02-24T12:31:25.655Z,12.35
2023-02-24T12:34:00.374Z,12.35
2023-02-24T12:37:07.866Z,10.98
2023-02-24T12:40:14.058Z,11.50
2023-02-24T12:43:02.239Z,11.77
2023-02-24T12:45:43.016Z,12.80
2023-02-24T12:48:15.735Z,11.93
2023-02-24T12:50:53.866Z,12.50
2023-02-24T12:53:23.260Z,12.23
2023-02-24T12:55:53.003Z,12.30
2023-02-24T12:58:25.212Z,11.68
2023-02-24T13:01:16.196Z,12.55
2023-02-24T13:04:12.846Z,13.25
2023-02-24T13:06:55.042Z,13.75
2023-02-24T13:09:37.386Z,13.63
2023-02-24T13:12:20.494Z,14.32
2023-02-24T13:14:49.440Z,14.13
2023-02-24T13:17:22.001Z,14.10
2023-02-24T13:19:52.252Z,14.55
2023-02-24T13:22:24.125Z,14.45
2023-02-24T13:25:23.641Z,13.27
2023-02-24T13:28:33.263Z,13.23
2023-02-24T13:31:06.300Z,13.00
2023-02-24T13:33:41.948Z,13.00
2023-02-24T13:36:13.561Z,13.38
2023-02-24T13:38:44.244Z,12.50
2023-02-24T13:41:23.047Z,12.35
2023-02-24T13:44:21.977Z,12.05
2023-02-24T13:47:17.936Z,12.13
2023-02-24T13:49:59.939Z,11.95
2023-02-24T13:52:53.356Z,12.75
2023-02-24T13:55:29.550Z,12.20
2023-02-24T13:57:59.484Z,11.73
2023-02-24T14:01:14.783Z,12.38
2023-02-24T14:03:46.193Z,11.43
2023-02-24T14:06:26.443Z,11.52
2023-02-24T14:08:58.787Z,12.40
2023-02-24T14:11:29.939Z,12.30
2023-02-24T14:13:58.159Z,11.85
2023-02-24T14:16:40.044Z,11.95
2023-02-24T14:19:14.518Z,11.02
2023-02-24T14:21:49.549Z,12.10
2023-02-24T14:24:19.323Z,13.10
2023-02-24T14:26:55.510Z,12.65
2023-02-24T14:29:26.864Z,11.85
2023-02-24T14:31:55.708Z,11.93
2023-02-24T14:34:25.654Z,12.10
2023-02-24T14:36:56.551Z,12.38
2023-02-24T14:39:24.752Z,11.55
2023-02-24T14:42:06.993Z,11.23
2023-02-24T14:44:34.882Z,10.82
2023-02-24T14:47:09.660Z,10.63
2023-02-24T14:49:36.761Z,10.43
2023-02-24T14:52:21.678Z,10.45
2023-02-24T14:54:52.794Z,10.13
2023-02-24T14:57:24.168Z,9.27
2023-02-24T14:59:55.655Z,10.38
2023-02-24T15:02:32.955Z,10.65
2023-02-24T15:05:00.859Z,9.65
2023-02-24T15:07:32.415Z,10.45
2023-02-24T15:10:00.528Z,11.00
2023-02-24T15:13:00.642Z,11.93
2023-02-24T15:15:38.605Z,11.93
2023-02-24T15:18:26.074Z,10.93
2023-02-24T15:21:07.719Z,10.50
2023-02-24T15:23:37.726Z,10.93
2023-02-24T15:26:08.849Z,10.57
2023-02-24T15:28:37.597Z,10.68
2023-02-24T15:31:19.914Z,10.55
2023-02-24T15:33:58.451Z,8.95
2023-02-24T15:36:36.195Z,9.02
2023-02-24T15:39:07.194Z,9.55
2023-02-24T15:41:45.940Z,8.40
2023-02-24T15:44:33.595Z,9.23
2023-02-24T15:47:20.668Z,16.48
2023-02-24T15:49:49.377Z,18.85
2023-02-24T15:52:23.504Z,19.88
2023-02-24T15:54:50.965Z,19.92
2023-02-24T15:57:19.480Z,18.45
2023-02-24T15:59:47.653Z,19.55
2023-02-24T16:02:22.378Z,19.48
2023-02-24T16:04:50.579Z,19.42
2023-02-24T16:07:33.980Z,19.10
2023-02-24T16:10:02.263Z,19.27
2023-02-24T16:12:47.680Z,18.75
2023-02-24T16:15:22.495Z,18.17
2023-02-24T16:17:51.086Z,17.73
2023-02-24T16:20:27.555Z,18.83
2023-02-24T16:22:59.648Z,18.60
2023-02-24T16:25:27.626Z,18.40
2023-02-24T16:27:57.488Z,17.65
2023-02-24T16:30:30.706Z,19.50
2023-02-24T16:32:59.950Z,19.52
2023-02-24T16:35:28.518Z,18.98
2023-02-24T16:37:55.584Z,20.35
2023-02-24T16:40:27.981Z,20.17
2023-02-24T16:42:56.816Z,20.40
2023-02-24T16:45:28.943Z,21.83
2023-02-24T16:48:01.253Z,20.60
2023-02-24T16:50:40.934Z,20.17
2023-02-24T16:53:08.754Z,19.95
2023-02-24T16:55:36.133Z,19.08
2023-02-24T16:58:03.292Z,18.67
2023-02-24T17:00:30.520Z,17.25
2023-02-24T17:02:57.777Z,16.90
2023-02-24T17:05:26.978Z,15.77
2023-02-24T17:07:56.168Z,15.45
2023-02-24T17:10:25.101Z,15.23
2023-02-24T17:12:52.959Z,14.70
2023-02-24T17:15:23.072Z,14.98
2023-02-24T17:17:50.223Z,14.07
2023-02-24T17:20:19.860Z,13.77
2023-02-24T17:22:47.363Z,14.23
2023-02-24T17:25:20.787Z,14.15
2023-02-24T17:27:48.212Z,14.95
2023-02-24T17:30:17.727Z,14.88
2023-02-24T17:32:45.040Z,14.93
2023-02-24T17:35:12.126Z,14.18
2023-02-24T17:37:39.582Z,15.30
2023-02-24T17:40:08.116Z,15.20
2023-02-24T17:42:35.725Z,14.85
2023-02-24T17:45:03.736Z,14.63
2023-02-24T17:47:31.199Z,15.15
2023-02-24T17:50:00.714Z,14.98
2023-02-24T17:52:28.164Z,14.50
2023-02-24T17:54:55.811Z,15.43
2023-02-24T17:57:22.930Z,15.73
2023-02-24T17:59:50.698Z,15.38
2023-02-24T18:02:18.591Z,15.82
2023-02-24T18:04:46.137Z,15.85
2023-02-24T18:07:14.125Z,16.25
2023-02-24T18:09:41.599Z,14.43
2023-02-24T18:12:08.774Z,15.23
2023-02-24T18:14:35.865Z,15.18
2023-02-24T18:17:03.050Z,15.30
2023-02-24T18:19:30.692Z,16.08
2023-02-24T18:21:57.919Z,15.10
2023-02-24T18:24:25.413Z,15.20
2023-02-24T18:26:53.047Z,15.68
2023-02-24T18:29:20.317Z,15.98
2023-02-24T18:31:47.861Z,17.10
2023-02-24T18:34:15.273Z,17.05
2023-02-24T18:36:42.729Z,17.35
2023-02-24T18:39:10.251Z,17.60
2023-02-24T18:41:37.360Z,18.77
2023-02-24T18:44:04.742Z,18.25
2023-02-24T18:46:32.011Z,18.23
2023-02-24T18:48:59.235Z,17.88
2023-02-24T18:51:26.833Z,18.17
2023-02-24T18:53:55.023Z,18.58
2023-02-24T18:56:26.263Z,17.83
2023-02-24T18:58:58.549Z,18.70
2023-02-24T19:01:28.966Z,16.98
2023-02-24T19:03:56.828Z,17.20
2023-02-24T19:06:27.102Z,17.10
2023-02-24T19:09:12.228Z,18.15
2023-02-24T19:11:41.017Z,17.60
2023-02-24T19:14:11.998Z,17.23
2023-02-24T19:16:39.794Z,17.23
2023-02-24T19:19:06.912Z,17.25
2023-02-24T19:21:34.549Z,16.45
2023-02-24T19:24:03.894Z,16.40
2023-02-24T19:26:31.567Z,16.33
2023-02-24T19:28:59.237Z,14.95
2023-02-24T19:31:29.232Z,15.85
2023-02-24T19:34:00.299Z,15.07
2023-02-24T19:36:28.599Z,16.35
2023-02-24T19:38:55.992Z,16.05
2023-02-24T19:41:23.329Z,15.38
2023-02-24T19:43:50.470Z,15.00
2023-02-24T19:46:18.741Z,13.77
2023-02-24T19:48:49.227Z,14.23
2023-02-24T19:51:19.554Z,13.57
2023-02-24T19:53:48.043Z,12.40
2023-02-24T19:56:15.392Z,12.82
2023-02-24T19:58:42.688Z,12.15
2023-02-24T20:01:12.785Z,12.82
2023-02-24T20:03:42.129Z,11.50
2023-02-24T20:06:31.817Z,11.70
2023-02-24T20:09:00.033Z,11.73
2023-02-24T20:11:29.837Z,10.77
2023-02-24T20:13:57.145Z,11.38
2023-02-24T20:16:26.142Z,9.95
2023-02-24T20:18:55.133Z,10.15
2023-02-24T20:21:22.284Z,9.93
2023-02-24T20:23:51.326Z,9.05
2023-02-24T20:26:19.154Z,8.25
2023-02-24T20:28:47.359Z,8.15
2023-02-24T20:31:18.684Z,7.88
2023-02-24T20:33:47.765Z,7.65
2023-02-24T20:36:24.772Z,7.68
2023-02-24T20:38:53.529Z,8.00
2023-02-24T20:41:21.715Z,8.50
2023-02-24T20:43:49.867Z,7.97
2023-02-24T20:46:23.246Z,8.50
2023-02-24T20:48:52.628Z,7.78
2023-02-24T20:51:19.699Z,7.55
2023-02-24T20:53:56.726Z,9.05
2023-02-24T20:56:29.478Z,9.00
2023-02-24T20:59:10.626Z,8.32
2023-02-24T21:01:39.397Z,8.52
2023-02-24T21:04:08.807Z,8.30
2023-02-24T21:06:37.791Z,7.97
2023-02-24T21:09:05.089Z,8.27
2023-02-24T21:11:32.603Z,7.93
2023-02-24T21:13:59.995Z,8.10
2023-02-24T21:16:27.650Z,8.75
2023-02-24T21:18:56.413Z,8.20
2023-02-24T21:21:23.689Z,9.15
2023-02-24T21:23:51.353Z,8.82
2023-02-24T21:26:18.831Z,8.45
2023-02-24T21:28:46.613Z,8.43
2023-02-24T21:31:17.351Z,8.32
2023-02-24T21:33:44.800Z,8.55
2023-02-24T21:36:14.575Z,8.48
2023-02-24T21:38:42.059Z,6.97
2023-02-24T21:41:14.811Z,8.15
2023-02-24T21:43:44.469Z,7.75
2023-02-24T21:46:13.669Z,8.43
2023-02-24T21:48:41.905Z,8.15
2023-02-24T21:51:12.788Z,8.30
2023-02-24T21:53:43.631Z,8.35
2023-02-24T21:56:16.720Z,7.63
2023-02-24T21:59:03.930Z,7.72
2023-02-24T22:01:33.790Z,7.25
2023-02-24T22:04:03.389Z,5.70
2023-02-24T22:06:33.321Z,6.10
2023-02-24T22:09:02.157Z,5.00
2023-02-24T22:11:31.866Z,4.97
2023-02-24T22:13:58.952Z,3.65
2023-02-24T22:16:26.845Z,4.32
2023-02-24T22:18:55.438Z,3.65
2023-02-24T22:21:25.418Z,4.00
2023-02-24T22:23:54.631Z,4.30
2023-02-24T22:26:25.689Z,4.10
2023-02-24T22:28:57.011Z,4.40
2023-02-24T22:31:26.984Z,4.07
2023-02-24T22:33:54.297Z,3.97
2023-02-24T22:36:27.176Z,3.33
2023-02-24T22:38:58.972Z,3.50
2023-02-24T22:41:29.759Z,3.33
2023-02-24T22:43:56.963Z,3.83
2023-02-24T22:46:32.708Z,4.90
2023-02-24T22:49:00.251Z,5.82
2023-02-24T22:51:27.867Z,5.82
2023-02-24T22:53:55.338Z,5.93
2023-02-24T22:56:27.929Z,5.60
2023-02-24T22:58:56.248Z,5.18
2023-02-24T23:01:31.227Z,4.72
2023-02-24T23:04:03.694Z,4.90
2023-02-24T23:06:31.613Z,4.72
2023-02-24T23:09:00.540Z,5.13
2023-02-24T23:11:33.776Z,5.85
2023-02-24T23:14:03.889Z,5.72
2023-02-24T23:16:33.089Z,4.90
2023-02-24T23:19:04.346Z,5.28
2023-02-24T23:21:38.055Z,5.13
2023-02-24T23:24:07.374Z,5.97
2023-02-24T23:26:38.557Z,5.30
2023-02-24T23:29:06.468Z,5.60
2023-02-24T23:31:34.302Z,5.40
2023-02-24T23:34:03.915Z,5.70
2023-02-24T23:36:31.049Z,5.25
2023-02-24T23:38:58.194Z,5.57
2023-02-24T23:41:25.384Z,5.38
2023-02-24T23:43:52.751Z,5.90
2023-02-24T23:46:20.181Z,6.55
2023-02-24T23:48:54.031Z,6.40
2023-02-24T23:51:21.689Z,6.38
2023-02-24T23:53:49.515Z,6.63
2023-02-24T23:56:23.972Z,6.38
2023-02-24T23:58:57.643Z,6.82
